Time;durP1;ratioP1;P1;durP2;ratioP2;P2;SDS_P1;SDS_P2;PMS_P1;PMS_P2;Temp;Humidity;BMP_temperature;BMP_pressure;BME280_temperature;BME280_humidity;BME280_pressure;Samples;Min_cycle;Max_cycle;Signal;HPM_P1;HPM_P2
2022/10/08 00:01:23;;;;;;;;;;;12.70;99.90;;;;;;5084448;28;20290;-73
2022/10/08 00:03:52;;;;;;;;;;;12.80;99.90;;;;;;5084942;28;19921;-73
2022/10/08 00:06:19;;;;;;;;;;;12.70;99.90;;;;;;5084456;28;19927;-72
2022/10/08 00:08:48;;;;;;;;;;;12.70;99.90;;;;;;5084428;28;20007;-72
2022/10/08 00:11:16;;;;;;;;;;;12.70;99.90;;;;;;5084328;28;19927;-73
2022/10/08 00:13:44;;;;;;;;;;;12.70;99.90;;;;;;5084808;28;19925;-73
2022/10/08 00:16:12;;;;;;;;;;;12.70;99.90;;;;;;5084374;28;19979;-73
2022/10/08 00:18:39;;;;;;;;;;;12.70;99.90;;;;;;5084610;28;19924;-72
2022/10/08 00:21:13;;;;;;;;;;;12.60;99.90;;;;;;5083931;28;19932;-73
2022/10/08 00:23:39;;;;;;;;;;;12.60;99.90;;;;;;5084319;28;20277;-73
2022/10/08 00:26:06;;;;;;;;;;;12.50;99.90;;;;;;5084261;28;19989;-73
2022/10/08 00:28:33;;;;;;;;;;;12.50;99.90;;;;;;5084240;28;19921;-72
2022/10/08 00:31:05;;;;;;;;;;;12.60;99.90;;;;;;5084520;28;19927;-73
2022/10/08 00:33:31;;;;;;;;;;;12.50;99.90;;;;;;5084178;28;19927;-73
2022/10/08 00:36:00;;;;;;;;;;;12.60;99.90;;;;;;5083869;28;20051;-73
2022/10/08 00:38:28;;;;;;;;;;;12.50;99.90;;;;;;5084168;28;19956;-72
2022/10/08 00:40:55;;;;;;;;;;;12.50;99.90;;;;;;5083793;28;19980;-73
2022/10/08 00:43:36;;;;;;;;;;;12.50;99.90;;;;;;5083532;28;19981;-73
2022/10/08 00:46:03;;;;;;;;;;;12.50;99.90;;;;;;5083711;28;19988;-73
2022/10/08 00:48:29;;;;;;;;;;;12.50;99.90;;;;;;5083703;28;19921;-72
2022/10/08 00:50:56;;;;;;;;;;;12.60;99.90;;;;;;5083905;28;19920;-73
2022/10/08 00:53:23;;;;;;;;;;;12.50;99.90;;;;;;5083827;28;19983;-73
2022/10/08 00:55:51;;;;;;;;;;;12.60;99.90;;;;;;5083755;28;19987;-71
2022/10/08 00:58:19;;;;;;;;;;;12.60;99.90;;;;;;5083661;28;20115;-72
2022/10/08 01:00:46;;;;;;;;;;;12.50;99.90;;;;;;5083603;28;19980;-72
2022/10/08 01:03:13;;;;;;;;;;;12.60;99.90;;;;;;5083500;28;20257;-73
2022/10/08 01:05:44;;;;;;;;;;;12.60;99.90;;;;;;5083367;28;20227;-73
2022/10/08 01:08:14;;;;;;;;;;;12.50;99.90;;;;;;5083670;28;20162;-73
2022/10/08 01:10:45;;;;;;;;;;;12.60;99.90;;;;;;5083439;28;19979;-73
2022/10/08 01:13:18;;;;;;;;;;;12.50;99.90;;;;;;5083561;28;20119;-72
2022/10/08 01:15:48;;;;;;;;;;;12.50;99.90;;;;;;5083371;28;19983;-73
2022/10/08 01:18:21;;;;;;;;;;;12.50;99.90;;;;;;5083629;28;19963;-71
2022/10/08 01:20:51;;;;;;;;;;;12.50;99.90;;;;;;5083226;28;19920;-72
2022/10/08 01:23:29;;;;;;;;;;;12.50;99.90;;;;;;5083114;28;19920;-73
2022/10/08 01:25:56;;;;;;;;;;;12.50;99.90;;;;;;5083130;28;20000;-73
2022/10/08 01:28:29;;;;;;;;;;;12.50;99.90;;;;;;5083235;28;19920;-73
2022/10/08 01:30:59;;;;;;;;;;;12.50;99.90;;;;;;5083283;28;20208;-73
2022/10/08 01:33:27;;;;;;;;;;;12.50;99.90;;;;;;5083470;28;19927;-73
2022/10/08 01:35:56;;;;;;;;;;;12.50;99.90;;;;;;5082904;28;19924;-73
2022/10/08 01:38:24;;;;;;;;;;;12.50;99.90;;;;;;5083639;28;20195;-70
2022/10/08 01:40:51;;;;;;;;;;;12.50;99.90;;;;;;5083272;28;19928;-73
2022/10/08 01:43:19;;;;;;;;;;;12.50;99.90;;;;;;5083294;28;19981;-71
2022/10/08 01:45:49;;;;;;;;;;;12.50;99.90;;;;;;5083411;28;19921;-73
2022/10/08 01:48:18;;;;;;;;;;;12.50;99.90;;;;;;5083284;28;19920;-73
2022/10/08 01:50:49;;;;;;;;;;;12.50;99.90;;;;;;5082775;28;19921;-73
2022/10/08 01:53:17;;;;;;;;;;;12.50;99.90;;;;;;5084175;28;19964;-73
2022/10/08 01:55:46;;;;;;;;;;;12.50;99.90;;;;;;5087073;28;19920;-73
2022/10/08 01:58:14;;;;;;;;;;;12.40;99.90;;;;;;5087133;28;20226;-73
2022/10/08 02:00:41;;;;;;;;;;;12.50;99.90;;;;;;5086842;28;19927;-73
2022/10/08 02:03:10;;;;;;;;;;;12.50;99.90;;;;;;5087207;28;19921;-73
2022/10/08 02:05:38;;;;;;;;;;;12.40;99.90;;;;;;5086703;28;20162;-72
2022/10/08 02:08:05;;;;;;;;;;;12.40;99.90;;;;;;5087169;28;19920;-73
2022/10/08 02:10:32;;;;;;;;;;;12.40;99.90;;;;;;5086862;28;19927;-73
2022/10/08 02:12:59;;;;;;;;;;;12.50;99.90;;;;;;5087095;28;19920;-73
2022/10/08 02:15:31;;;;;;;;;;;12.40;99.90;;;;;;5086744;28;19920;-72
2022/10/08 02:18:05;;;;;;;;;;;12.40;99.90;;;;;;5086660;28;19981;-72
2022/10/08 02:20:35;;;;;;;;;;;12.40;99.90;;;;;;5086736;28;19936;-72
2022/10/08 02:23:04;;;;;;;;;;;12.40;99.90;;;;;;5086620;28;20241;-70
2022/10/08 02:25:33;;;;;;;;;;;12.40;99.90;;;;;;5086555;28;19987;-73
2022/10/08 02:28:05;;;;;;;;;;;12.50;99.90;;;;;;5086469;28;19920;-73
2022/10/08 02:30:34;;;;;;;;;;;12.40;99.90;;;;;;5086249;28;19979;-72
2022/10/08 02:33:02;;;;;;;;;;;12.40;99.90;;;;;;5086712;28;19968;-73
2022/10/08 02:35:32;;;;;;;;;;;12.50;99.90;;;;;;5086423;28;19920;-73
2022/10/08 02:38:03;;;;;;;;;;;12.50;99.90;;;;;;5086537;28;19946;-73
2022/10/08 02:40:30;;;;;;;;;;;12.50;99.90;;;;;;5086141;28;19920;-73
2022/10/08 02:42:59;;;;;;;;;;;12.40;99.90;;;;;;5086042;28;19987;-72
2022/10/08 02:45:27;;;;;;;;;;;12.40;99.90;;;;;;5086159;28;20115;-72
2022/10/08 02:47:58;;;;;;;;;;;12.40;99.90;;;;;;5086345;28;19920;-73
2022/10/08 02:50:27;;;;;;;;;;;12.50;99.90;;;;;;5086289;28;19921;-73
2022/10/08 02:52:54;;;;;;;;;;;12.40;99.90;;;;;;5086216;28;19921;-73
2022/10/08 02:55:25;;;;;;;;;;;12.40;99.90;;;;;;5085909;28;19920;-73
2022/10/08 02:57:56;;;;;;;;;;;12.40;99.90;;;;;;5086002;28;19927;-73
2022/10/08 03:00:23;;;;;;;;;;;12.30;99.90;;;;;;5086003;28;19920;-73
2022/10/08 03:02:52;;;;;;;;;;;12.40;99.90;;;;;;5086033;28;19928;-73
2022/10/08 03:05:19;;;;;;;;;;;12.40;99.90;;;;;;5084656;28;19955;-73
2022/10/08 03:07:47;;;;;;;;;;;12.40;99.90;;;;;;5086024;28;19979;-73
2022/10/08 03:10:13;;;;;;;;;;;12.40;99.90;;;;;;5085695;28;20238;-73
2022/10/08 03:12:42;;;;;;;;;;;12.40;99.90;;;;;;5085696;28;19995;-73
2022/10/08 03:15:10;;;;;;;;;;;12.40;99.90;;;;;;5085664;28;19920;-73
2022/10/08 03:17:38;;;;;;;;;;;12.40;99.90;;;;;;5084427;28;20359;-73
2022/10/08 03:20:05;;;;;;;;;;;12.30;99.90;;;;;;5085383;28;19920;-71
2022/10/08 03:22:33;;;;;;;;;;;12.30;99.90;;;;;;5085446;28;19920;-71
2022/10/08 03:24:59;;;;;;;;;;;12.30;99.90;;;;;;5080006;28;19980;-73
2022/10/08 03:27:26;;;;;;;;;;;12.30;99.90;;;;;;5104524;22;19991;-70
2022/10/08 03:29:56;;;;;;;;;;;12.40;99.90;;;;;;5105732;28;19928;-70
2022/10/08 03:32:22;;;;;;;;;;;12.30;99.90;;;;;;5105518;28;19928;-70
2022/10/08 03:34:49;;;;;;;;;;;12.30;99.90;;;;;;5105197;28;19920;-70
2022/10/08 03:37:16;;;;;;;;;;;12.30;99.90;;;;;;5105631;28;19920;-70
2022/10/08 03:39:42;;;;;;;;;;;12.40;99.90;;;;;;5105564;28;19983;-70
2022/10/08 03:42:09;;;;;;;;;;;12.30;99.90;;;;;;5105284;28;19920;-70
2022/10/08 03:44:36;;;;;;;;;;;12.30;99.90;;;;;;5105177;28;20088;-70
2022/10/08 03:47:04;;;;;;;;;;;12.40;99.90;;;;;;5105263;28;19987;-70
2022/10/08 03:49:30;;;;;;;;;;;12.40;99.90;;;;;;5088007;28;19927;-70
2022/10/08 03:51:57;;;;;;;;;;;12.40;99.90;;;;;;5105165;28;19987;-70
2022/10/08 03:54:24;;;;;;;;;;;12.40;99.90;;;;;;5105498;28;19920;-70
2022/10/08 03:56:50;;;;;;;;;;;12.40;99.90;;;;;;5104786;28;20167;-70
2022/10/08 03:59:17;;;;;;;;;;;12.40;99.90;;;;;;5105331;28;19991;-70
2022/10/08 04:01:44;;;;;;;;;;;12.40;99.90;;;;;;5104913;28;20262;-70
2022/10/08 04:04:11;;;;;;;;;;;12.40;99.90;;;;;;5105156;28;19995;-70
2022/10/08 04:06:38;;;;;;;;;;;12.40;99.90;;;;;;5104931;28;19998;-70
2022/10/08 04:09:05;;;;;;;;;;;12.40;99.90;;;;;;5105173;28;19920;-70
2022/10/08 04:11:31;;;;;;;;;;;12.40;99.90;;;;;;5104897;28;20172;-70
2022/10/08 04:13:59;;;;;;;;;;;12.40;99.90;;;;;;5104999;28;19927;-70
2022/10/08 04:16:26;;;;;;;;;;;12.40;99.90;;;;;;5104335;28;19919;-70
2022/10/08 04:18:53;;;;;;;;;;;12.40;99.90;;;;;;5104530;28;19951;-70
2022/10/08 04:21:21;;;;;;;;;;;12.40;99.90;;;;;;5104682;28;19920;-70
2022/10/08 04:23:48;;;;;;;;;;;12.40;99.90;;;;;;5104924;28;19920;-70
2022/10/08 04:26:15;;;;;;;;;;;12.40;99.90;;;;;;5104283;28;20332;-70
2022/10/08 04:28:43;;;;;;;;;;;12.40;99.90;;;;;;5104223;28;20241;-70
2022/10/08 04:31:11;;;;;;;;;;;12.40;99.90;;;;;;5104630;28;20146;-70
2022/10/08 04:33:37;;;;;;;;;;;12.40;99.90;;;;;;5104468;28;19920;-70
2022/10/08 04:36:07;;;;;;;;;;;12.40;99.90;;;;;;5104251;28;20151;-70
2022/10/08 04:38:35;;;;;;;;;;;12.40;99.90;;;;;;5104277;28;19920;-70
2022/10/08 04:41:02;;;;;;;;;;;12.40;99.90;;;;;;5104377;28;19930;-70
2022/10/08 04:43:29;;;;;;;;;;;12.40;99.90;;;;;;5104425;28;19927;-70
2022/10/08 04:45:55;;;;;;;;;;;12.40;99.90;;;;;;5103970;28;19927;-70
2022/10/08 04:48:22;;;;;;;;;;;12.40;99.90;;;;;;5104137;28;19959;-70
2022/10/08 04:50:53;;;;;;;;;;;12.30;99.90;;;;;;5104041;28;19983;-70
2022/10/08 04:53:20;;;;;;;;;;;12.40;99.90;;;;;;5104386;28;19991;-70
2022/10/08 04:55:48;;;;;;;;;;;12.30;99.90;;;;;;5103823;28;19948;-70
2022/10/08 04:58:14;;;;;;;;;;;12.40;99.90;;;;;;5103766;28;19920;-70
2022/10/08 05:00:41;;;;;;;;;;;12.40;99.90;;;;;;5103962;28;19934;-70
2022/10/08 05:03:08;;;;;;;;;;;12.40;99.90;;;;;;5104099;28;19983;-70
2022/10/08 05:05:38;;;;;;;;;;;12.40;99.90;;;;;;5103635;28;20187;-70
2022/10/08 05:08:04;;;;;;;;;;;12.40;99.90;;;;;;5103726;28;19927;-70
2022/10/08 05:10:31;;;;;;;;;;;12.40;99.90;;;;;;5103970;28;19920;-70
2022/10/08 05:12:59;;;;;;;;;;;12.40;99.90;;;;;;5103697;28;19987;-70
2022/10/08 05:15:25;;;;;;;;;;;12.40;99.90;;;;;;5103865;28;19926;-70
2022/10/08 05:17:52;;;;;;;;;;;12.40;99.90;;;;;;5103430;28;20097;-70
2022/10/08 05:20:19;;;;;;;;;;;12.50;99.90;;;;;;5104215;28;19926;-70
2022/10/08 05:22:46;;;;;;;;;;;12.50;99.90;;;;;;5103554;28;20234;-70
2022/10/08 05:25:12;;;;;;;;;;;12.50;99.90;;;;;;5103422;28;19942;-70
2022/10/08 05:27:39;;;;;;;;;;;12.50;99.90;;;;;;5102879;28;20134;-70
2022/10/08 05:30:08;;;;;;;;;;;12.50;99.90;;;;;;5103757;28;19983;-70
2022/10/08 05:32:34;;;;;;;;;;;12.50;99.90;;;;;;5103513;28;19920;-70
2022/10/08 05:35:01;;;;;;;;;;;12.50;99.90;;;;;;5103359;28;19920;-70
2022/10/08 05:37:28;;;;;;;;;;;12.50;99.90;;;;;;5103361;28;19926;-69
2022/10/08 05:39:54;;;;;;;;;;;12.60;99.90;;;;;;5103487;28;19951;-70
2022/10/08 05:42:21;;;;;;;;;;;12.60;99.90;;;;;;5103374;28;19987;-70
2022/10/08 05:44:47;;;;;;;;;;;12.60;99.90;;;;;;5102736;28;19987;-70
2022/10/08 05:47:15;;;;;;;;;;;12.60;99.90;;;;;;5103061;28;20049;-70
2022/10/08 05:49:42;;;;;;;;;;;12.60;99.90;;;;;;5102891;28;19926;-70
2022/10/08 05:52:09;;;;;;;;;;;12.60;99.90;;;;;;5103017;28;19920;-70
2022/10/08 05:54:35;;;;;;;;;;;12.60;99.90;;;;;;5103173;28;19996;-70
2022/10/08 05:57:02;;;;;;;;;;;12.60;99.90;;;;;;5103079;28;19988;-70
2022/10/08 05:59:28;;;;;;;;;;;12.60;99.90;;;;;;5103217;28;20116;-70
2022/10/08 06:01:55;;;;;;;;;;;12.70;99.90;;;;;;5103162;28;19959;-70
2022/10/08 06:04:23;;;;;;;;;;;12.70;99.90;;;;;;5103356;28;19991;-70
2022/10/08 06:06:49;;;;;;;;;;;12.70;99.90;;;;;;5102691;28;20119;-70
2022/10/08 06:09:17;;;;;;;;;;;12.70;99.90;;;;;;5103146;28;20000;-69
2022/10/08 06:11:44;;;;;;;;;;;12.70;99.90;;;;;;5103112;28;19928;-71
2022/10/08 06:14:11;;;;;;;;;;;12.70;99.90;;;;;;5102910;28;20199;-70
2022/10/08 06:16:39;;;;;;;;;;;12.80;99.90;;;;;;5102818;28;19956;-70
2022/10/08 06:19:08;;;;;;;;;;;12.80;99.90;;;;;;5103180;28;19983;-70
2022/10/08 06:21:36;;;;;;;;;;;12.80;99.90;;;;;;5102780;28;19920;-70
2022/10/08 06:24:04;;;;;;;;;;;12.90;99.90;;;;;;5103015;28;19920;-70
2022/10/08 06:26:31;;;;;;;;;;;12.90;99.90;;;;;;5102660;28;19959;-70
2022/10/08 06:29:05;;;;;;;;;;;12.90;99.90;;;;;;5101872;28;19987;-70
2022/10/08 06:31:32;;;;;;;;;;;12.90;99.90;;;;;;5102808;28;19920;-69
2022/10/08 06:33:59;;;;;;;;;;;13.00;99.90;;;;;;5102823;28;19920;-69
2022/10/08 06:36:26;;;;;;;;;;;13.00;99.90;;;;;;5101134;28;20251;-69
2022/10/08 06:38:55;;;;;;;;;;;13.10;99.90;;;;;;5100010;28;20115;-70
2022/10/08 06:41:22;;;;;;;;;;;13.10;99.90;;;;;;5105702;28;19924;-70
2022/10/08 06:43:49;;;;;;;;;;;13.20;99.90;;;;;;5106289;28;20114;-70
2022/10/08 06:46:16;;;;;;;;;;;13.20;99.90;;;;;;5104372;28;19935;-70
2022/10/08 06:48:43;;;;;;;;;;;13.20;99.90;;;;;;5099435;28;20120;-70
2022/10/08 06:51:12;;;;;;;;;;;13.20;99.90;;;;;;5106489;28;19920;-70
2022/10/08 06:53:39;;;;;;;;;;;13.30;99.90;;;;;;5105967;28;19979;-70
2022/10/08 06:56:09;;;;;;;;;;;13.30;99.90;;;;;;5106120;28;20171;-70
2022/10/08 06:58:36;;;;;;;;;;;13.40;99.90;;;;;;5106205;28;19920;-70
2022/10/08 07:01:04;;;;;;;;;;;13.40;99.90;;;;;;5106204;28;19920;-70
2022/10/08 07:03:30;;;;;;;;;;;13.40;99.90;;;;;;5105962;28;19920;-70
2022/10/08 07:05:59;;;;;;;;;;;13.40;99.90;;;;;;5106091;28;20270;-70
2022/10/08 07:08:25;;;;;;;;;;;13.40;99.90;;;;;;5106616;28;19926;-70
2022/10/08 07:10:53;;;;;;;;;;;13.50;99.90;;;;;;5098036;28;19924;-70
2022/10/08 07:13:21;;;;;;;;;;;13.50;99.90;;;;;;5101210;28;19924;-70
2022/10/08 07:15:47;;;;;;;;;;;13.50;99.90;;;;;;5103248;28;20108;-70
2022/10/08 07:18:15;;;;;;;;;;;13.50;99.90;;;;;;5102690;28;19979;-69
2022/10/08 07:20:41;;;;;;;;;;;13.50;99.90;;;;;;5104660;28;20199;-69
2022/10/08 07:23:08;;;;;;;;;;;13.50;99.90;;;;;;5106128;28;19979;-69
2022/10/08 07:25:34;;;;;;;;;;;13.50;99.90;;;;;;5101211;28;20261;-70
2022/10/08 07:28:01;;;;;;;;;;;13.60;99.90;;;;;;5096127;28;19984;-69
2022/10/08 07:30:31;;;;;;;;;;;13.60;99.90;;;;;;5105235;28;20119;-69
2022/10/08 07:32:59;;;;;;;;;;;13.60;99.90;;;;;;5102963;28;20227;-70
2022/10/08 07:35:25;;;;;;;;;;;13.70;99.90;;;;;;5104951;28;19956;-69
2022/10/08 07:37:52;;;;;;;;;;;13.70;99.90;;;;;;5102803;28;19928;-70
2022/10/08 07:40:19;;;;;;;;;;;13.70;99.90;;;;;;5104200;28;20211;-69
2022/10/08 07:42:45;;;;;;;;;;;13.80;99.90;;;;;;5101818;28;19931;-71
2022/10/08 07:45:12;;;;;;;;;;;13.80;99.90;;;;;;5102559;28;19920;-69
2022/10/08 07:47:40;;;;;;;;;;;13.90;99.90;;;;;;5104888;28;19927;-70
2022/10/08 07:50:07;;;;;;;;;;;13.90;99.90;;;;;;5105330;28;20155;-70
2022/10/08 07:52:33;;;;;;;;;;;13.90;99.90;;;;;;5104723;28;19927;-69
2022/10/08 07:55:00;;;;;;;;;;;13.90;99.90;;;;;;5104653;28;19951;-70
2022/10/08 07:57:27;;;;;;;;;;;13.90;99.90;;;;;;5104675;28;19927;-70
2022/10/08 07:59:54;;;;;;;;;;;14.00;99.90;;;;;;5104319;28;19920;-69
2022/10/08 08:02:20;;;;;;;;;;;14.00;99.90;;;;;;5104612;28;19920;-69
2022/10/08 08:04:48;;;;;;;;;;;14.00;99.90;;;;;;5104371;28;19983;-70
2022/10/08 08:07:15;;;;;;;;;;;14.00;99.90;;;;;;5103078;28;19927;-69
2022/10/08 08:09:41;;;;;;;;;;;14.00;99.90;;;;;;5104123;28;19983;-70
2022/10/08 08:12:08;;;;;;;;;;;14.00;99.90;;;;;;5103891;28;19927;-70
2022/10/08 08:14:35;;;;;;;;;;;14.10;99.90;;;;;;5103681;28;19987;-69
2022/10/08 08:17:01;;;;;;;;;;;14.10;99.90;;;;;;5103719;28;19955;-70
2022/10/08 08:19:28;;;;;;;;;;;14.10;99.90;;;;;;5104137;28;19947;-69
2022/10/08 08:21:56;;;;;;;;;;;14.10;99.90;;;;;;5103466;28;19927;-70
2022/10/08 08:24:23;;;;;;;;;;;14.20;99.90;;;;;;5103842;28;19987;-70
2022/10/08 08:26:50;;;;;;;;;;;14.20;99.90;;;;;;5103554;28;19979;-69
2022/10/08 08:29:17;;;;;;;;;;;14.20;99.90;;;;;;5104253;28;20127;-69
2022/10/08 08:31:45;;;;;;;;;;;14.30;99.90;;;;;;5103033;28;19987;-70
2022/10/08 08:34:12;;;;;;;;;;;14.30;99.90;;;;;;5104164;28;19978;-69
2022/10/08 08:36:40;;;;;;;;;;;14.40;99.90;;;;;;5101335;28;19928;-70
2022/10/08 08:39:09;;;;;;;;;;;14.50;99.90;;;;;;5100517;28;19926;-70
2022/10/08 08:41:50;;;;;;;;;;;14.50;99.90;;;;;;5102036;28;19928;-69
2022/10/08 08:44:18;;;;;;;;;;;14.60;99.90;;;;;;5100296;28;19928;-69
2022/10/08 08:46:47;;;;;;;;;;;14.70;99.90;;;;;;5103109;28;20258;-69
2022/10/08 08:49:17;;;;;;;;;;;14.70;99.90;;;;;;5100906;28;19951;-69
2022/10/08 08:51:43;;;;;;;;;;;14.70;99.90;;;;;;5103037;28;20191;-70
2022/10/08 08:54:11;;;;;;;;;;;14.80;99.90;;;;;;5100891;28;19951;-70
2022/10/08 08:56:38;;;;;;;;;;;14.80;99.90;;;;;;5103161;28;19984;-69
2022/10/08 08:59:12;;;;;;;;;;;14.90;99.90;;;;;;5103350;28;20405;-70
2022/10/08 09:01:42;;;;;;;;;;;15.10;99.90;;;;;;5103162;28;19995;-70
2022/10/08 09:04:12;;;;;;;;;;;15.10;99.90;;;;;;5102502;28;20159;-69
2022/10/08 09:06:39;;;;;;;;;;;15.20;99.90;;;;;;5102096;28;19950;-69
2022/10/08 09:09:11;;;;;;;;;;;15.20;99.90;;;;;;5103287;28;19920;-69
2022/10/08 09:11:41;;;;;;;;;;;15.20;99.90;;;;;;5095366;28;20162;-69
2022/10/08 09:14:25;;;;;;;;;;;15.20;99.90;;;;;;5103526;28;19927;-69
2022/10/08 09:16:52;;;;;;;;;;;15.10;99.90;;;;;;5103122;28;20030;-70
2022/10/08 09:19:19;;;;;;;;;;;15.10;99.90;;;;;;5102096;28;19950;-70
2022/10/08 09:21:45;;;;;;;;;;;15.10;99.90;;;;;;5099917;28;19920;-70
2022/10/08 09:24:12;;;;;;;;;;;15.10;99.90;;;;;;5100964;28;19927;-69
2022/10/08 09:26:40;;;;;;;;;;;15.30;99.90;;;;;;5102418;28;19975;-69
2022/10/08 09:29:07;;;;;;;;;;;15.40;99.90;;;;;;5103536;28;20142;-69
2022/10/08 09:31:37;;;;;;;;;;;15.40;99.90;;;;;;5102987;28;19928;-69
2022/10/08 09:34:05;;;;;;;;;;;15.50;99.90;;;;;;5102922;28;19920;-70
2022/10/08 09:36:33;;;;;;;;;;;15.50;99.90;;;;;;5102605;28;19932;-70
2022/10/08 09:39:00;;;;;;;;;;;15.60;99.90;;;;;;5102991;28;19979;-69
2022/10/08 09:41:27;;;;;;;;;;;15.60;99.90;;;;;;5102976;28;20270;-69
2022/10/08 09:44:10;;;;;;;;;;;15.60;99.90;;;;;;5102778;28;19935;-69
2022/10/08 09:46:36;;;;;;;;;;;15.70;99.90;;;;;;5100011;28;19927;-70
2022/10/08 09:49:19;;;;;;;;;;;15.70;99.90;;;;;;5102550;28;19920;-70
2022/10/08 09:51:46;;;;;;;;;;;15.70;99.90;;;;;;5100577;28;19920;-69
2022/10/08 09:54:13;;;;;;;;;;;15.70;99.90;;;;;;5102728;28;19943;-69
2022/10/08 09:56:40;;;;;;;;;;;15.80;99.90;;;;;;5102390;28;19926;-70
2022/10/08 09:59:17;;;;;;;;;;;15.80;99.90;;;;;;5102554;28;19988;-72
2022/10/08 10:01:45;;;;;;;;;;;15.90;99.90;;;;;;5103493;28;19927;-70
2022/10/08 10:04:16;;;;;;;;;;;15.90;99.90;;;;;;5103831;28;19962;-70
2022/10/08 10:06:47;;;;;;;;;;;16.00;99.90;;;;;;5102913;28;19920;-69
2022/10/08 10:09:22;;;;;;;;;;;16.00;99.90;;;;;;5103293;28;20010;-69
2022/10/08 10:11:50;;;;;;;;;;;16.00;99.90;;;;;;5101042;28;19983;-70
2022/10/08 10:14:21;;;;;;;;;;;16.10;99.90;;;;;;5103097;28;19983;-70
2022/10/08 10:16:49;;;;;;;;;;;16.10;99.90;;;;;;5107238;28;19920;-73
2022/10/08 10:19:18;;;;;;;;;;;16.10;99.90;;;;;;5106957;28;20359;-71
2022/10/08 10:21:49;;;;;;;;;;;16.10;99.90;;;;;;5107720;28;19927;-71
2022/10/08 10:24:31;;;;;;;;;;;16.10;99.90;;;;;;5107264;28;19951;-72
2022/10/08 10:27:01;;;;;;;;;;;16.10;99.90;;;;;;5103679;28;19983;-70
2022/10/08 10:29:31;;;;;;;;;;;16.30;99.90;;;;;;5107224;28;19993;-70
2022/10/08 10:32:00;;;;;;;;;;;16.40;99.90;;;;;;5107067;28;19995;-70
2022/10/08 10:34:27;;;;;;;;;;;16.40;99.90;;;;;;5106972;28;20169;-71
2022/10/08 10:36:56;;;;;;;;;;;16.50;99.90;;;;;;5107160;28;19920;-71
2022/10/08 10:39:26;;;;;;;;;;;16.60;99.90;;;;;;5107112;28;19988;-70
2022/10/08 10:41:55;;;;;;;;;;;16.80;99.90;;;;;;5107095;28;19921;-70
2022/10/08 10:44:24;;;;;;;;;;;16.90;99.90;;;;;;5106615;28;19926;-71
2022/10/08 10:46:55;;;;;;;;;;;17.00;99.90;;;;;;5106624;28;19966;-70
2022/10/08 10:49:23;;;;;;;;;;;17.20;99.90;;;;;;5107271;28;19991;-71
2022/10/08 10:51:54;;;;;;;;;;;17.30;99.90;;;;;;5106731;28;19942;-70
2022/10/08 10:54:30;;;;;;;;;;;17.40;99.90;;;;;;5106737;28;19920;-70
2022/10/08 10:57:00;;;;;;;;;;;17.50;99.90;;;;;;5106895;28;19994;-69
2022/10/08 10:59:34;;;;;;;;;;;17.60;99.90;;;;;;5106374;28;19926;-69
2022/10/08 11:02:08;;;;;;;;;;;17.70;99.90;;;;;;5106594;28;19934;-71
2022/10/08 11:04:42;;;;;;;;;;;17.80;99.90;;;;;;5101345;28;19920;-71
2022/10/08 11:07:16;;;;;;;;;;;17.80;99.90;;;;;;5106185;28;19920;-72
2022/10/08 11:09:46;;;;;;;;;;;17.90;99.90;;;;;;5106498;28;19920;-69
2022/10/08 11:12:20;;;;;;;;;;;18.00;99.90;;;;;;5106386;28;20115;-70
2022/10/08 11:14:54;;;;;;;;;;;18.00;99.90;;;;;;5106297;28;19920;-71
2022/10/08 11:17:38;;;;;;;;;;;17.90;99.90;;;;;;5106358;28;19992;-71
2022/10/08 11:20:15;;;;;;;;;;;17.90;99.90;;;;;;5085836;28;20000;-70
2022/10/08 11:22:45;;;;;;;;;;;18.00;99.90;;;;;;5091031;28;19994;-69
2022/10/08 11:25:19;;;;;;;;;;;17.90;99.90;;;;;;5105630;28;19926;-70
2022/10/08 11:27:50;;;;;;;;;;;17.80;99.90;;;;;;5105524;28;20004;-70
2022/10/08 11:30:18;;;;;;;;;;;17.60;99.90;;;;;;5105978;28;19928;-70
2022/10/08 11:32:53;;;;;;;;;;;17.60;99.90;;;;;;5104243;28;19979;-70
2022/10/08 11:35:27;;;;;;;;;;;17.50;99.90;;;;;;5105057;28;19983;-70
2022/10/08 11:37:59;;;;;;;;;;;17.40;99.90;;;;;;5105489;28;20110;-71
2022/10/08 11:40:29;;;;;;;;;;;17.20;99.90;;;;;;5104938;28;19943;-71
2022/10/08 11:43:01;;;;;;;;;;;17.00;99.90;;;;;;5104521;28;19929;-70
2022/10/08 11:45:31;;;;;;;;;;;16.90;99.90;;;;;;5085208;28;19983;-70
2022/10/08 11:48:01;;;;;;;;;;;16.90;99.90;;;;;;5091728;28;20115;-70
2022/10/08 11:50:30;;;;;;;;;;;16.90;99.90;;;;;;5105650;28;19927;-70
2022/10/08 11:52:58;;;;;;;;;;;16.80;99.90;;;;;;5105680;28;20271;-69
2022/10/08 11:55:26;;;;;;;;;;;16.80;99.90;;;;;;5107193;28;19920;-69
2022/10/08 11:57:55;;;;;;;;;;;16.90;99.90;;;;;;5105468;28;19982;-70
2022/10/08 12:00:34;;;;;;;;;;;17.10;99.90;;;;;;5103679;28;20233;-70
2022/10/08 12:03:04;;;;;;;;;;;17.30;99.90;;;;;;5088700;28;19921;-70
2022/10/08 12:05:36;;;;;;;;;;;17.70;99.90;;;;;;5104979;28;19943;-72
2022/10/08 12:08:05;;;;;;;;;;;18.00;99.90;;;;;;5105484;28;19987;-72
2022/10/08 12:10:33;;;;;;;;;;;18.10;99.90;;;;;;5085382;28;20002;-72
2022/10/08 12:13:21;;;;;;;;;;;18.10;99.90;;;;;;5087944;28;19920;-72
2022/10/08 12:15:49;;;;;;;;;;;18.00;99.90;;;;;;5090158;28;19936;-72
2022/10/08 12:18:39;;;;;;;;;;;17.90;99.90;;;;;;5100557;28;19941;-72
2022/10/08 12:21:24;;;;;;;;;;;17.80;99.90;;;;;;5082262;28;20219;-71
2022/10/08 12:23:53;;;;;;;;;;;17.60;99.90;;;;;;5102890;28;19920;-71
2022/10/08 12:26:25;;;;;;;;;;;17.50;99.90;;;;;;5102537;28;19920;-70
2022/10/08 12:28:52;;;;;;;;;;;17.30;99.90;;;;;;5102814;28;19920;-71
2022/10/08 12:31:29;;;;;;;;;;;17.40;99.90;;;;;;5103951;28;20096;-70
2022/10/08 12:34:00;;;;;;;;;;;17.20;99.90;;;;;;5100567;28;20234;-69
2022/10/08 12:36:34;;;;;;;;;;;17.20;99.90;;;;;;5102906;28;19920;-72
2022/10/08 12:39:03;;;;;;;;;;;17.10;99.90;;;;;;5103809;28;19920;-72
2022/10/08 12:41:30;;;;;;;;;;;17.10;99.90;;;;;;5104488;28;19926;-72
2022/10/08 12:44:00;;;;;;;;;;;17.20;99.90;;;;;;5104268;28;19942;-72
2022/10/08 12:46:33;;;;;;;;;;;17.40;99.90;;;;;;5103151;28;20215;-69
2022/10/08 12:49:03;;;;;;;;;;;17.60;99.90;;;;;;5101167;28;19927;-67
2022/10/08 12:51:34;;;;;;;;;;;17.90;99.90;;;;;;5104015;28;19920;-69
2022/10/08 12:54:03;;;;;;;;;;;18.00;99.90;;;;;;5104147;28;19992;-72
2022/10/08 12:56:30;;;;;;;;;;;18.20;99.90;;;;;;5104074;28;19986;-72
2022/10/08 12:58:59;;;;;;;;;;;18.40;99.90;;;;;;5103117;28;20063;-72
2022/10/08 13:01:25;;;;;;;;;;;18.50;99.90;;;;;;5103334;28;19926;-73
2022/10/08 13:04:08;;;;;;;;;;;18.50;99.90;;;;;;5102799;28;19987;-72
2022/10/08 13:06:35;;;;;;;;;;;18.80;99.90;;;;;;5101687;28;20168;-72
2022/10/08 13:09:12;;;;;;;;;;;19.00;99.90;;;;;;5101568;28;19995;-73
2022/10/08 13:11:38;;;;;;;;;;;19.20;99.90;;;;;;5100590;28;19920;-72
2022/10/08 13:14:05;;;;;;;;;;;19.10;99.90;;;;;;5103295;28;19987;-72
2022/10/08 13:16:45;;;;;;;;;;;19.00;99.90;;;;;;5102497;28;19992;-73
2022/10/08 13:19:16;;;;;;;;;;;18.80;99.90;;;;;;5103339;28;19928;-72
2022/10/08 13:21:53;;;;;;;;;;;18.70;99.90;;;;;;5103105;28;19926;-72
2022/10/08 13:24:31;;;;;;;;;;;18.80;99.90;;;;;;5103515;28;19926;-72
2022/10/08 13:26:58;;;;;;;;;;;18.90;99.90;;;;;;5102391;28;19958;-72
2022/10/08 13:29:33;;;;;;;;;;;19.20;99.90;;;;;;5103002;28;19983;-72
2022/10/08 13:32:01;;;;;;;;;;;19.30;99.90;;;;;;5102950;28;20115;-72
2022/10/08 13:34:29;;;;;;;;;;;19.30;99.90;;;;;;5103019;28;19927;-72
2022/10/08 13:36:57;;;;;;;;;;;19.30;99.90;;;;;;5102755;28;19920;-72
2022/10/08 13:39:26;;;;;;;;;;;19.40;99.90;;;;;;5102733;28;20089;-72
2022/10/08 13:41:55;;;;;;;;;;;19.50;99.90;;;;;;5103128;28;19928;-72
2022/10/08 13:44:22;;;;;;;;;;;19.70;99.90;;;;;;5103147;28;19995;-72
2022/10/08 13:46:48;;;;;;;;;;;19.80;99.90;;;;;;5102510;28;19960;-72
2022/10/08 13:49:18;;;;;;;;;;;19.80;99.90;;;;;;5099791;28;19920;-71
2022/10/08 13:51:44;;;;;;;;;;;19.90;99.90;;;;;;5102404;28;20220;-72
2022/10/08 13:54:11;;;;;;;;;;;19.80;99.90;;;;;;5102322;28;19958;-72
2022/10/08 13:56:38;;;;;;;;;;;19.60;99.90;;;;;;5101638;28;20211;-72
2022/10/08 13:59:06;;;;;;;;;;;19.40;99.90;;;;;;5100737;28;19920;-72
2022/10/08 14:01:32;;;;;;;;;;;19.20;99.90;;;;;;5102723;28;19928;-72
2022/10/08 14:03:59;;;;;;;;;;;19.20;99.90;;;;;;5102482;28;19999;-73
2022/10/08 14:06:26;;;;;;;;;;;19.10;99.90;;;;;;5102329;28;20178;-72
2022/10/08 14:08:52;;;;;;;;;;;19.20;99.90;;;;;;5102567;28;19987;-72
2022/10/08 14:11:19;;;;;;;;;;;19.20;99.90;;;;;;5102853;28;19983;-72
2022/10/08 14:13:45;;;;;;;;;;;19.00;99.90;;;;;;5101939;28;19920;-72
2022/10/08 14:16:13;;;;;;;;;;;18.90;99.90;;;;;;5100959;28;19988;-72
2022/10/08 14:18:40;;;;;;;;;;;19.00;99.90;;;;;;5094880;28;19920;-72
2022/10/08 14:21:07;;;;;;;;;;;18.90;99.90;;;;;;5100167;28;20043;-71
2022/10/08 14:23:33;;;;;;;;;;;18.90;99.90;;;;;;5099737;28;19920;-69
2022/10/08 14:26:00;;;;;;;;;;;19.00;99.90;;;;;;5102865;28;19983;-70